Ravenna, Michigan
Current Conditions -  °F | °C
As of 6:55 PM on Friday 31 Oct 2014 (Local Time) from KMKG Reporting Station
Overcast Overcast  
Wind Chill: 27°   Ceiling: 3400
Heat Index: 37°   Visibility: 10mi
Dew Point: 24°   Wind: 17mph
Humidity: 59%   Direction: 10°N
Pressure: 30.26"   Gusts: 30mph
Location:  43.19°N, 85.94°W
Report Text: KMKG 312255Z 01015G26KT 10SM OVC034 03/M04 A3026 RMK AO2 PK WND 35026/2254 SNE32 SLP252 P0000 T00281044
Loading
Personal Weather Stations






























Interactive Weather Map
Tropical Storm Tracking
New forecast layout! Learn more

10-Day Weather Forecast

Advertisements
Track Severe Weather on mobile